sensor_id;sensor_type;location;lat;lon;timestamp;P1;durP1;ratioP1;P2;durP2;ratioP2
80963;SDS011;70425;59.322;13.486;2023-07-29T00:01:22;12.47;;;6.23;;
80963;SDS011;70425;59.322;13.486;2023-07-29T00:04:37;9.87;;;5.83;;
80963;SDS011;70425;59.322;13.486;2023-07-29T00:07:29;15.03;;;6.07;;
80963;SDS011;70425;59.322;13.486;2023-07-29T00:59:11;4.57;;;2.27;;
80963;SDS011;70425;59.322;13.486;2023-07-29T01:15:19;8.33;;;2.50;;
80963;SDS011;70425;59.322;13.486;2023-07-29T01:29:24;5.63;;;2.40;;
80963;SDS011;70425;59.322;13.486;2023-07-29T01:35:05;4.47;;;2.97;;
80963;SDS011;70425;59.322;13.486;2023-07-29T01:37:59;3.33;;;2.43;;
80963;SDS011;70425;59.322;13.486;2023-07-29T01:40:52;3.43;;;2.83;;
80963;SDS011;70425;59.322;13.486;2023-07-29T01:43:43;6.27;;;3.17;;
80963;SDS011;70425;59.322;13.486;2023-07-29T01:46:36;6.87;;;3.47;;
80963;SDS011;70425;59.322;13.486;2023-07-29T01:49:26;7.67;;;3.33;;
80963;SDS011;70425;59.322;13.486;2023-07-29T02:02:58;6.40;;;2.73;;
80963;SDS011;70425;59.322;13.486;2023-07-29T02:53:27;8.63;;;3.20;;
80963;SDS011;70425;59.322;13.486;2023-07-29T03:06:55;6.67;;;3.67;;
80963;SDS011;70425;59.322;13.486;2023-07-29T03:32:29;9.70;;;5.20;;
80963;SDS011;70425;59.322;13.486;2023-07-29T04:01:38;9.63;;;2.77;;
80963;SDS011;70425;59.322;13.486;2023-07-29T04:29:45;10.30;;;3.53;;
80963;SDS011;70425;59.322;13.486;2023-07-29T04:47:36;12.27;;;3.33;;
80963;SDS011;70425;59.322;13.486;2023-07-29T04:50:27;15.47;;;3.20;;
80963;SDS011;70425;59.322;13.486;2023-07-29T04:53:17;10.63;;;3.13;;
80963;SDS011;70425;59.322;13.486;2023-07-29T04:56:07;8.13;;;2.90;;
80963;SDS011;70425;59.322;13.486;2023-07-29T04:58:58;8.80;;;3.10;;
80963;SDS011;70425;59.322;13.486;2023-07-29T05:01:49;6.23;;;2.90;;
80963;SDS011;70425;59.322;13.486;2023-07-29T05:25:10;10.47;;;2.93;;
80963;SDS011;70425;59.322;13.486;2023-07-29T05:28:07;15.63;;;3.40;;
80963;SDS011;70425;59.322;13.486;2023-07-29T05:30:56;5.73;;;2.90;;
80963;SDS011;70425;59.322;13.486;2023-07-29T05:33:47;13.33;;;3.20;;
80963;SDS011;70425;59.322;13.486;2023-07-29T05:36:36;7.97;;;2.80;;
80963;SDS011;70425;59.322;13.486;2023-07-29T05:39:25;8.77;;;2.93;;
80963;SDS011;70425;59.322;13.486;2023-07-29T05:42:14;6.77;;;3.17;;
80963;SDS011;70425;59.322;13.486;2023-07-29T05:45:03;18.40;;;3.47;;
80963;SDS011;70425;59.322;13.486;2023-07-29T05:47:53;7.87;;;3.30;;
80963;SDS011;70425;59.322;13.486;2023-07-29T05:50:42;10.17;;;3.13;;
80963;SDS011;70425;59.322;13.486;2023-07-29T05:53:31;7.23;;;3.00;;
80963;SDS011;70425;59.322;13.486;2023-07-29T05:56:20;8.13;;;2.90;;
80963;SDS011;70425;59.322;13.486;2023-07-29T06:12:16;7.93;;;3.63;;
80963;SDS011;70425;59.322;13.486;2023-07-29T06:17:51;8.30;;;2.90;;
80963;SDS011;70425;59.322;13.486;2023-07-29T06:20:41;9.03;;;3.13;;
80963;SDS011;70425;59.322;13.486;2023-07-29T06:23:31;7.40;;;2.80;;
80963;SDS011;70425;59.322;13.486;2023-07-29T06:26:21;6.73;;;2.87;;
80963;SDS011;70425;59.322;13.486;2023-07-29T06:29:11;5.90;;;3.00;;
80963;SDS011;70425;59.322;13.486;2023-07-29T06:32:03;7.93;;;2.80;;
80963;SDS011;70425;59.322;13.486;2023-07-29T06:34:55;10.50;;;2.73;;
80963;SDS011;70425;59.322;13.486;2023-07-29T06:37:44;5.77;;;2.70;;
80963;SDS011;70425;59.322;13.486;2023-07-29T06:51:23;8.03;;;3.10;;
80963;SDS011;70425;59.322;13.486;2023-07-29T06:56:07;9.90;;;2.90;;
80963;SDS011;70425;59.322;13.486;2023-07-29T06:58:58;7.50;;;3.07;;
80963;SDS011;70425;59.322;13.486;2023-07-29T07:47:56;4.77;;;3.10;;
80963;SDS011;70425;59.322;13.486;2023-07-29T08:52:55;12.40;;;3.30;;
80963;SDS011;70425;59.322;13.486;2023-07-29T08:55:45;6.80;;;3.40;;
80963;SDS011;70425;59.322;13.486;2023-07-29T08:58:35;7.33;;;2.83;;
80963;SDS011;70425;59.322;13.486;2023-07-29T09:01:27;6.23;;;2.90;;
80963;SDS011;70425;59.322;13.486;2023-07-29T09:04:17;5.23;;;2.97;;
80963;SDS011;70425;59.322;13.486;2023-07-29T09:07:05;10.33;;;3.40;;
80963;SDS011;70425;59.322;13.486;2023-07-29T09:09:55;8.70;;;3.00;;
80963;SDS011;70425;59.322;13.486;2023-07-29T09:12:44;7.83;;;3.23;;
80963;SDS011;70425;59.322;13.486;2023-07-29T09:15:33;5.07;;;2.67;;
80963;SDS011;70425;59.322;13.486;2023-07-29T09:18:22;6.60;;;3.07;;
80963;SDS011;70425;59.322;13.486;2023-07-29T09:21:13;5.17;;;2.63;;
80963;SDS011;70425;59.322;13.486;2023-07-29T09:24:03;5.50;;;2.60;;
80963;SDS011;70425;59.322;13.486;2023-07-29T09:42:20;8.90;;;3.20;;
80963;SDS011;70425;59.322;13.486;2023-07-29T09:45:10;6.47;;;2.90;;
80963;SDS011;70425;59.322;13.486;2023-07-29T09:47:59;7.40;;;2.93;;
80963;SDS011;70425;59.322;13.486;2023-07-29T09:56:39;7.43;;;2.97;;
80963;SDS011;70425;59.322;13.486;2023-07-29T09:59:31;4.30;;;2.70;;
80963;SDS011;70425;59.322;13.486;2023-07-29T10:07:55;4.43;;;2.47;;
80963;SDS011;70425;59.322;13.486;2023-07-29T10:10:49;5.73;;;2.87;;
80963;SDS011;70425;59.322;13.486;2023-07-29T10:13:51;4.10;;;2.93;;
80963;SDS011;70425;59.322;13.486;2023-07-29T10:21:06;5.77;;;2.93;;
80963;SDS011;70425;59.322;13.486;2023-07-29T10:27:47;5.27;;;2.90;;
80963;SDS011;70425;59.322;13.486;2023-07-29T10:30:45;5.37;;;2.87;;
80963;SDS011;70425;59.322;13.486;2023-07-29T10:37:26;5.13;;;2.47;;
80963;SDS011;70425;59.322;13.486;2023-07-29T11:12:45;3.13;;;2.23;;
80963;SDS011;70425;59.322;13.486;2023-07-29T11:18:31;6.87;;;2.43;;
80963;SDS011;70425;59.322;13.486;2023-07-29T11:21:20;3.60;;;2.67;;
80963;SDS011;70425;59.322;13.486;2023-07-29T11:24:09;6.90;;;2.73;;
80963;SDS011;70425;59.322;13.486;2023-07-29T11:26:58;3.33;;;2.57;;
80963;SDS011;70425;59.322;13.486;2023-07-29T11:29:46;2.40;;;2.20;;
80963;SDS011;70425;59.322;13.486;2023-07-29T11:49:10;5.37;;;2.60;;
80963;SDS011;70425;59.322;13.486;2023-07-29T11:52:05;5.07;;;2.40;;
80963;SDS011;70425;59.322;13.486;2023-07-29T11:54:55;4.63;;;2.17;;
80963;SDS011;70425;59.322;13.486;2023-07-29T11:57:44;3.60;;;2.50;;
80963;SDS011;70425;59.322;13.486;2023-07-29T12:00:33;6.43;;;2.57;;
80963;SDS011;70425;59.322;13.486;2023-07-29T12:03:22;4.50;;;2.77;;
80963;SDS011;70425;59.322;13.486;2023-07-29T12:06:13;4.53;;;2.73;;
80963;SDS011;70425;59.322;13.486;2023-07-29T12:09:02;5.07;;;2.70;;
80963;SDS011;70425;59.322;13.486;2023-07-29T12:11:51;3.97;;;2.27;;
80963;SDS011;70425;59.322;13.486;2023-07-29T12:28:07;4.57;;;2.90;;
80963;SDS011;70425;59.322;13.486;2023-07-29T12:30:55;3.27;;;2.90;;
80963;SDS011;70425;59.322;13.486;2023-07-29T12:34:03;4.17;;;2.73;;
80963;SDS011;70425;59.322;13.486;2023-07-29T13:20:16;3.17;;;2.63;;
80963;SDS011;70425;59.322;13.486;2023-07-29T13:37:10;3.90;;;2.90;;
80963;SDS011;70425;59.322;13.486;2023-07-29T13:40:20;6.00;;;3.00;;
80963;SDS011;70425;59.322;13.486;2023-07-29T13:43:14;4.30;;;2.73;;
80963;SDS011;70425;59.322;13.486;2023-07-29T13:46:57;6.30;;;3.00;;
80963;SDS011;70425;59.322;13.486;2023-07-29T14:05:01;5.20;;;2.70;;
80963;SDS011;70425;59.322;13.486;2023-07-29T14:11:37;4.77;;;2.90;;
80963;SDS011;70425;59.322;13.486;2023-07-29T14:18:00;3.43;;;2.73;;
80963;SDS011;70425;59.322;13.486;2023-07-29T14:20:49;7.93;;;3.10;;
80963;SDS011;70425;59.322;13.486;2023-07-29T14:23:38;4.10;;;2.63;;
80963;SDS011;70425;59.322;13.486;2023-07-29T14:26:27;4.43;;;2.83;;
80963;SDS011;70425;59.322;13.486;2023-07-29T14:29:15;4.07;;;2.60;;
80963;SDS011;70425;59.322;13.486;2023-07-29T14:32:05;2.97;;;2.60;;
80963;SDS011;70425;59.322;13.486;2023-07-29T14:34:54;3.90;;;2.60;;
80963;SDS011;70425;59.322;13.486;2023-07-29T14:37:43;4.30;;;2.50;;
80963;SDS011;70425;59.322;13.486;2023-07-29T14:40:31;5.63;;;2.80;;
80963;SDS011;70425;59.322;13.486;2023-07-29T14:43:21;3.80;;;2.90;;
80963;SDS011;70425;59.322;13.486;2023-07-29T14:46:09;3.77;;;2.60;;
80963;SDS011;70425;59.322;13.486;2023-07-29T14:48:58;3.53;;;2.40;;
80963;SDS011;70425;59.322;13.486;2023-07-29T15:38:04;5.53;;;2.50;;
80963;SDS011;70425;59.322;13.486;2023-07-29T15:40:53;5.37;;;2.87;;
80963;SDS011;70425;59.322;13.486;2023-07-29T15:43:41;6.20;;;2.67;;
80963;SDS011;70425;59.322;13.486;2023-07-29T15:46:30;2.90;;;2.50;;
80963;SDS011;70425;59.322;13.486;2023-07-29T15:49:19;4.83;;;2.50;;
80963;SDS011;70425;59.322;13.486;2023-07-29T15:52:08;4.97;;;2.40;;
80963;SDS011;70425;59.322;13.486;2023-07-29T15:54:58;4.23;;;2.67;;
80963;SDS011;70425;59.322;13.486;2023-07-29T15:57:47;3.93;;;2.90;;
80963;SDS011;70425;59.322;13.486;2023-07-29T16:03:59;3.77;;;2.70;;
80963;SDS011;70425;59.322;13.486;2023-07-29T16:06:48;4.60;;;2.87;;
80963;SDS011;70425;59.322;13.486;2023-07-29T16:09:36;4.07;;;2.80;;
80963;SDS011;70425;59.322;13.486;2023-07-29T16:12:25;7.50;;;2.73;;
80963;SDS011;70425;59.322;13.486;2023-07-29T16:36:39;3.77;;;2.33;;
80963;SDS011;70425;59.322;13.486;2023-07-29T16:53:05;4.40;;;2.60;;
80963;SDS011;70425;59.322;13.486;2023-07-29T17:12:54;2.80;;;2.47;;
80963;SDS011;70425;59.322;13.486;2023-07-29T17:15:43;3.63;;;2.80;;
80963;SDS011;70425;59.322;13.486;2023-07-29T17:18:33;3.80;;;2.60;;
80963;SDS011;70425;59.322;13.486;2023-07-29T17:21:25;4.70;;;2.87;;
80963;SDS011;70425;59.322;13.486;2023-07-29T17:24:14;3.97;;;2.60;;
80963;SDS011;70425;59.322;13.486;2023-07-29T17:27:03;3.77;;;2.50;;
80963;SDS011;70425;59.322;13.486;2023-07-29T17:29:53;7.90;;;2.47;;
80963;SDS011;70425;59.322;13.486;2023-07-29T17:32:41;8.00;;;2.70;;
80963;SDS011;70425;59.322;13.486;2023-07-29T17:35:31;5.30;;;2.57;;
80963;SDS011;70425;59.322;13.486;2023-07-29T17:38:20;4.83;;;3.00;;
80963;SDS011;70425;59.322;13.486;2023-07-29T17:41:09;4.23;;;2.87;;
80963;SDS011;70425;59.322;13.486;2023-07-29T17:43:57;6.07;;;2.70;;
80963;SDS011;70425;59.322;13.486;2023-07-29T17:46:46;4.27;;;2.67;;
80963;SDS011;70425;59.322;13.486;2023-07-29T17:49:35;4.63;;;2.80;;
80963;SDS011;70425;59.322;13.486;2023-07-29T18:22:53;5.63;;;2.90;;
80963;SDS011;70425;59.322;13.486;2023-07-29T18:25:43;4.10;;;2.90;;
80963;SDS011;70425;59.322;13.486;2023-07-29T18:28:34;3.50;;;2.90;;
80963;SDS011;70425;59.322;13.486;2023-07-29T18:31:22;4.17;;;2.80;;
80963;SDS011;70425;59.322;13.486;2023-07-29T18:34:10;4.83;;;3.17;;
80963;SDS011;70425;59.322;13.486;2023-07-29T18:36:59;6.70;;;3.03;;
80963;SDS011;70425;59.322;13.486;2023-07-29T19:08:10;5.27;;;3.07;;
80963;SDS011;70425;59.322;13.486;2023-07-29T19:24:33;4.33;;;3.27;;
80963;SDS011;70425;59.322;13.486;2023-07-29T19:41:54;4.80;;;3.00;;
80963;SDS011;70425;59.322;13.486;2023-07-29T20:14:34;4.17;;;3.37;;
80963;SDS011;70425;59.322;13.486;2023-07-29T20:34:10;3.17;;;2.87;;
80963;SDS011;70425;59.322;13.486;2023-07-29T20:36:59;6.40;;;3.00;;
80963;SDS011;70425;59.322;13.486;2023-07-29T20:39:54;4.10;;;3.20;;
80963;SDS011;70425;59.322;13.486;2023-07-29T20:42:43;4.40;;;3.10;;
80963;SDS011;70425;59.322;13.486;2023-07-29T20:45:34;5.30;;;3.20;;
80963;SDS011;70425;59.322;13.486;2023-07-29T20:48:19;4.77;;;3.57;;
80963;SDS011;70425;59.322;13.486;2023-07-29T20:51:07;5.50;;;3.30;;
80963;SDS011;70425;59.322;13.486;2023-07-29T20:53:56;10.93;;;3.90;;
80963;SDS011;70425;59.322;13.486;2023-07-29T20:56:45;5.83;;;3.63;;
80963;SDS011;70425;59.322;13.486;2023-07-29T20:59:33;5.07;;;3.40;;
80963;SDS011;70425;59.322;13.486;2023-07-29T21:02:22;6.20;;;4.20;;
80963;SDS011;70425;59.322;13.486;2023-07-29T21:05:11;6.70;;;4.47;;
80963;SDS011;70425;59.322;13.486;2023-07-29T21:08:03;5.57;;;3.67;;
80963;SDS011;70425;59.322;13.486;2023-07-29T21:10:52;3.83;;;3.23;;
80963;SDS011;70425;59.322;13.486;2023-07-29T21:37:55;4.30;;;3.90;;
80963;SDS011;70425;59.322;13.486;2023-07-29T21:54:09;4.00;;;3.60;;
80963;SDS011;70425;59.322;13.486;2023-07-29T22:16:03;5.40;;;3.87;;
80963;SDS011;70425;59.322;13.486;2023-07-29T22:32:29;7.13;;;4.03;;
80963;SDS011;70425;59.322;13.486;2023-07-29T22:45:59;6.80;;;4.33;;
80963;SDS011;70425;59.322;13.486;2023-07-29T23:03:16;10.37;;;4.60;;
80963;SDS011;70425;59.322;13.486;2023-07-29T23:09:23;8.03;;;4.53;;
80963;SDS011;70425;59.322;13.486;2023-07-29T23:12:13;7.93;;;4.93;;
80963;SDS011;70425;59.322;13.486;2023-07-29T23:15:02;5.53;;;4.50;;
80963;SDS011;70425;59.322;13.486;2023-07-29T23:17:53;9.17;;;4.70;;
80963;SDS011;70425;59.322;13.486;2023-07-29T23:20:43;5.63;;;4.60;;
80963;SDS011;70425;59.322;13.486;2023-07-29T23:23:31;9.47;;;4.87;;
80963;SDS011;70425;59.322;13.486;2023-07-29T23:26:21;11.67;;;5.00;;
80963;SDS011;70425;59.322;13.486;2023-07-29T23:29:10;8.00;;;5.23;;
80963;SDS011;70425;59.322;13.486;2023-07-29T23:31:59;9.97;;;4.97;;
80963;SDS011;70425;59.322;13.486;2023-07-29T23:34:49;7.50;;;5.20;;
80963;SDS011;70425;59.322;13.486;2023-07-29T23:51:04;8.37;;;5.40;;
